createdAt,value
2023-04-15T00:01:51.083Z,11.90
2023-04-15T00:04:17.647Z,11.92
2023-04-15T00:06:51.383Z,11.02
2023-04-15T00:09:17.775Z,11.85
2023-04-15T00:11:44.174Z,11.83
2023-04-15T00:14:10.690Z,11.54
2023-04-15T00:16:37.253Z,11.77
2023-04-15T00:19:03.759Z,12.00
2023-04-15T00:21:30.693Z,11.71
2023-04-15T00:23:57.363Z,11.90
2023-04-15T00:26:23.782Z,12.06
2023-04-15T00:28:50.208Z,11.79
2023-04-15T00:31:16.826Z,11.98
2023-04-15T00:33:43.646Z,11.99
2023-04-15T00:36:11.166Z,11.97
2023-04-15T00:38:38.388Z,11.98
2023-04-15T00:41:05.260Z,12.02
2023-04-15T00:43:31.663Z,11.20
2023-04-15T00:45:59.530Z,11.56
2023-04-15T00:48:27.894Z,11.71
2023-04-15T00:50:54.425Z,10.41
2023-04-15T00:53:20.830Z,11.55
2023-04-15T00:55:47.231Z,10.55
2023-04-15T00:58:14.111Z,10.48
2023-04-15T01:00:41.470Z,11.59
2023-04-15T01:03:08.790Z,11.66
2023-04-15T01:05:36.515Z,11.70
2023-04-15T01:08:03.624Z,11.70
2023-04-15T01:10:31.711Z,11.91
2023-04-15T01:12:58.370Z,11.46
2023-04-15T01:15:25.073Z,11.50
2023-04-15T01:17:51.643Z,11.78
2023-04-15T01:20:18.429Z,11.81
2023-04-15T01:22:45.380Z,11.82
2023-04-15T01:25:17.489Z,11.76
2023-04-15T01:27:44.154Z,11.84
2023-04-15T01:30:11.511Z,11.42
2023-04-15T01:32:38.271Z,11.51
2023-04-15T01:35:05.027Z,11.61
2023-04-15T01:37:32.341Z,11.62
2023-04-15T01:39:58.768Z,11.72
2023-04-15T01:42:25.318Z,11.55
2023-04-15T01:44:51.908Z,11.13
2023-04-15T01:47:18.557Z,11.58
2023-04-15T01:49:45.016Z,11.59
2023-04-15T01:52:11.443Z,11.65
2023-04-15T01:54:37.830Z,11.21
2023-04-15T01:57:05.514Z,11.48
2023-04-15T01:59:32.118Z,11.62
2023-04-15T02:01:58.766Z,11.60
2023-04-15T02:04:25.218Z,11.83
2023-04-15T02:06:51.642Z,11.58
2023-04-15T02:09:18.046Z,11.38
2023-04-15T02:11:44.852Z,11.24
2023-04-15T02:14:11.477Z,11.40
2023-04-15T02:16:37.944Z,11.66
2023-04-15T02:19:04.449Z,11.26
2023-04-15T02:21:30.941Z,11.49
2023-04-15T02:23:57.452Z,11.33
2023-04-15T02:26:25.301Z,11.64
2023-04-15T02:28:51.768Z,11.42
2023-04-15T02:31:18.356Z,11.43
2023-04-15T02:33:45.317Z,11.24
2023-04-15T02:36:12.394Z,11.33
2023-04-15T02:38:40.746Z,11.61
2023-04-15T02:41:07.159Z,11.26
2023-04-15T02:43:33.568Z,11.64
2023-04-15T02:46:00.062Z,11.63
2023-04-15T02:48:27.006Z,11.33
2023-04-15T02:50:53.473Z,11.30
2023-04-15T02:53:20.730Z,11.33
2023-04-15T02:55:47.172Z,11.55
2023-04-15T02:58:13.622Z,11.44
2023-04-15T03:00:40.178Z,11.25
2023-04-15T03:03:07.039Z,11.50
2023-04-15T03:05:33.681Z,11.58
2023-04-15T03:08:01.301Z,11.54
2023-04-15T03:10:27.921Z,11.50
2023-04-15T03:12:54.326Z,11.31
2023-04-15T03:15:21.143Z,11.22
2023-04-15T03:17:49.497Z,11.52
2023-04-15T03:20:16.947Z,11.24
2023-04-15T03:22:43.544Z,11.17
2023-04-15T03:25:10.076Z,10.95
2023-04-15T03:27:36.665Z,11.26
2023-04-15T03:30:03.348Z,11.53
2023-04-15T03:32:29.836Z,11.33
2023-04-15T03:34:56.285Z,11.34
2023-04-15T03:37:22.721Z,11.51
2023-04-15T03:39:49.163Z,11.44
2023-04-15T03:42:15.707Z,11.17
2023-04-15T03:44:42.204Z,11.42
2023-04-15T03:47:08.616Z,11.18
2023-04-15T03:49:35.659Z,10.97
2023-04-15T03:52:02.097Z,11.24
2023-04-15T03:54:28.555Z,11.04
2023-04-15T03:56:54.974Z,11.26
2023-04-15T03:59:21.451Z,11.31
2023-04-15T04:01:47.937Z,11.25
2023-04-15T04:04:14.579Z,11.30
2023-04-15T04:06:41.390Z,11.26
2023-04-15T04:09:07.808Z,11.39
2023-04-15T04:11:34.322Z,10.71
2023-04-15T04:14:00.745Z,10.94
2023-04-15T04:16:27.249Z,11.23
2023-04-15T04:18:53.784Z,11.39
2023-04-15T04:21:21.312Z,11.08
2023-04-15T04:23:47.815Z,11.30
2023-04-15T04:26:14.299Z,11.06
2023-04-15T04:28:40.969Z,10.94
2023-04-15T04:31:07.842Z,11.10
2023-04-15T04:33:34.492Z,11.46
2023-04-15T04:36:00.947Z,11.01
2023-04-15T04:38:27.378Z,11.23
2023-04-15T04:40:53.991Z,11.11
2023-04-15T04:43:20.423Z,10.97
2023-04-15T04:45:47.462Z,11.32
2023-04-15T04:48:13.911Z,10.79
2023-04-15T04:50:40.389Z,10.02
2023-04-15T04:53:06.838Z,11.04
2023-04-15T04:55:33.284Z,11.05
2023-04-15T04:57:59.683Z,10.19
2023-04-15T05:00:26.186Z,10.47
2023-04-15T05:02:52.698Z,10.85
2023-04-15T05:05:19.201Z,9.76
2023-04-15T05:07:45.666Z,10.91
2023-04-15T05:10:12.106Z,10.76
2023-04-15T05:12:38.671Z,11.28
2023-04-15T05:15:06.432Z,11.03
2023-04-15T05:17:35.142Z,10.84
2023-04-15T05:20:02.511Z,10.91
2023-04-15T05:22:29.088Z,11.28
2023-04-15T05:24:55.940Z,11.03
2023-04-15T05:27:23.976Z,11.13
2023-04-15T05:29:50.544Z,10.78
2023-04-15T05:32:17.398Z,10.94
2023-04-15T05:34:43.886Z,11.12
2023-04-15T05:37:10.440Z,10.80
2023-04-15T05:39:36.898Z,11.12
2023-04-15T05:42:03.497Z,11.32
2023-04-15T05:44:30.059Z,11.16
2023-04-15T05:46:56.860Z,11.04
2023-04-15T05:49:23.523Z,10.94
2023-04-15T05:51:50.047Z,10.87
2023-04-15T05:54:19.283Z,11.26
2023-04-15T05:56:46.542Z,11.09
2023-04-15T05:59:13.111Z,11.28
2023-04-15T06:01:40.032Z,11.47
2023-04-15T06:04:06.809Z,11.15
2023-04-15T06:06:33.385Z,11.33
2023-04-15T06:08:59.934Z,11.33
2023-04-15T06:11:27.273Z,11.24
2023-04-15T06:13:53.719Z,10.72
2023-04-15T06:16:20.200Z,11.09
2023-04-15T06:18:46.616Z,11.37
2023-04-15T06:21:13.128Z,11.21
2023-04-15T06:23:41.150Z,11.27
2023-04-15T06:26:07.940Z,10.66
2023-04-15T06:28:34.396Z,11.15
2023-04-15T06:31:01.921Z,10.64
2023-04-15T06:33:28.523Z,11.21
2023-04-15T06:35:55.915Z,11.04
2023-04-15T06:38:22.382Z,11.11
2023-04-15T06:40:48.836Z,11.35
2023-04-15T06:43:15.387Z,11.16
2023-04-15T06:45:41.880Z,11.35
2023-04-15T06:48:08.346Z,11.05
2023-04-15T06:50:35.981Z,11.08
2023-04-15T06:53:03.062Z,10.70
2023-04-15T06:55:29.622Z,10.86
2023-04-15T06:57:56.265Z,11.03
2023-04-15T07:00:22.809Z,11.60
2023-04-15T07:02:49.321Z,11.57
2023-04-15T07:05:16.008Z,11.60
2023-04-15T07:07:42.715Z,11.43
2023-04-15T07:10:09.904Z,11.76
2023-04-15T07:12:36.538Z,11.55
2023-04-15T07:15:03.695Z,10.83
2023-04-15T07:17:30.269Z,11.32
2023-04-15T07:19:56.991Z,11.75
2023-04-15T07:22:23.439Z,11.62
2023-04-15T07:24:49.885Z,11.78
2023-04-15T07:27:17.459Z,11.78
2023-04-15T07:29:43.860Z,11.50
2023-04-15T07:32:10.825Z,11.13
2023-04-15T07:34:37.947Z,11.87
2023-04-15T07:37:04.427Z,12.02
2023-04-15T07:39:31.114Z,11.90
2023-04-15T07:41:59.043Z,11.03
2023-04-15T07:44:26.967Z,11.70
2023-04-15T07:46:53.769Z,11.87
2023-04-15T07:49:21.308Z,11.93
2023-04-15T07:51:49.067Z,11.65
2023-04-15T07:54:15.748Z,11.88
2023-04-15T07:56:42.192Z,11.83
2023-04-15T07:59:09.859Z,11.71
2023-04-15T08:01:36.789Z,11.84
2023-04-15T08:04:03.832Z,12.15
2023-04-15T08:06:30.849Z,12.32
2023-04-15T08:08:57.547Z,12.02
2023-04-15T08:11:24.542Z,11.83
2023-04-15T08:13:52.058Z,11.83
2023-04-15T08:16:21.273Z,12.06
2023-04-15T08:18:48.864Z,12.19
2023-04-15T08:21:16.370Z,11.92
2023-04-15T08:23:43.710Z,12.24
2023-04-15T08:26:10.262Z,12.39
2023-04-15T08:28:39.201Z,11.92
2023-04-15T08:31:06.309Z,12.27
2023-04-15T08:33:32.853Z,12.10
2023-04-15T08:35:59.254Z,12.49
2023-04-15T08:38:25.974Z,12.17
2023-04-15T08:40:52.528Z,11.55
2023-04-15T08:43:26.284Z,12.11
2023-04-15T08:46:08.642Z,11.10
2023-04-15T08:48:38.402Z,11.93
2023-04-15T08:51:05.223Z,10.95
2023-04-15T08:53:31.723Z,10.47
2023-04-15T08:56:03.341Z,11.66
2023-04-15T08:58:30.081Z,11.67
2023-04-15T09:00:57.460Z,10.92
2023-04-15T09:03:24.899Z,10.59
2023-04-15T09:05:53.251Z,10.80
2023-04-15T09:08:19.869Z,11.75
2023-04-15T09:10:46.414Z,12.01
2023-04-15T09:13:13.556Z,11.70
2023-04-15T09:15:40.074Z,10.77
2023-04-15T09:18:07.028Z,11.52
2023-04-15T09:20:42.279Z,11.61
2023-04-15T09:23:14.167Z,11.51
2023-04-15T09:25:44.835Z,11.53
2023-04-15T09:28:11.453Z,12.14
2023-04-15T09:30:38.008Z,11.42
2023-04-15T09:33:08.298Z,11.01
2023-04-15T09:35:38.166Z,11.10
2023-04-15T09:38:07.271Z,11.78
2023-04-15T09:40:41.193Z,11.79
2023-04-15T09:43:09.213Z,10.99
2023-04-15T09:45:36.439Z,11.94
2023-04-15T09:48:16.265Z,11.66
2023-04-15T09:50:43.944Z,11.41
2023-04-15T09:53:14.245Z,12.34
2023-04-15T09:56:27.965Z,12.63
2023-04-15T09:58:57.212Z,12.77
2023-04-15T10:01:23.698Z,12.58
2023-04-15T10:03:51.518Z,12.70
2023-04-15T10:06:18.274Z,11.86
2023-04-15T10:08:46.202Z,12.32
2023-04-15T10:11:12.846Z,11.64
2023-04-15T10:13:39.891Z,11.27
2023-04-15T10:16:11.782Z,11.65
2023-04-15T10:18:43.000Z,11.10
2023-04-15T10:21:10.167Z,12.09
2023-04-15T10:23:36.804Z,12.03
2023-04-15T10:26:04.914Z,12.04
2023-04-15T10:28:31.680Z,12.26
2023-04-15T10:30:59.685Z,11.57
2023-04-15T10:33:27.862Z,11.00
2023-04-15T10:35:55.893Z,11.74
2023-04-15T10:38:36.658Z,11.53
2023-04-15T10:41:17.962Z,12.40
2023-04-15T10:43:53.617Z,11.47
2023-04-15T10:46:23.642Z,11.01
2023-04-15T10:48:52.332Z,11.89
2023-04-15T10:51:32.242Z,12.55
2023-04-15T10:54:02.119Z,12.49
2023-04-15T10:56:30.154Z,11.66
2023-04-15T10:58:59.180Z,11.34
2023-04-15T11:01:56.598Z,12.65
2023-04-15T11:04:58.713Z,12.39
2023-04-15T11:07:52.933Z,11.58
2023-04-15T11:10:25.565Z,11.39
2023-04-15T11:12:54.166Z,11.82
2023-04-15T11:15:30.301Z,11.49
2023-04-15T11:17:58.150Z,11.49
2023-04-15T11:20:25.206Z,11.68
2023-04-15T11:23:13.006Z,11.61
2023-04-15T11:25:40.901Z,10.31
2023-04-15T11:28:10.170Z,12.01
2023-04-15T11:30:37.938Z,11.10
2023-04-15T11:33:14.579Z,11.87
2023-04-15T11:35:42.244Z,11.55
2023-04-15T11:38:11.774Z,11.93
2023-04-15T11:40:38.853Z,12.43
2023-04-15T11:43:09.015Z,12.25
2023-04-15T11:45:36.970Z,12.66
2023-04-15T11:48:11.811Z,11.86
2023-04-15T11:50:42.306Z,12.27
2023-04-15T11:53:13.362Z,12.05
2023-04-15T11:55:48.628Z,12.78
2023-04-15T11:58:23.796Z,12.22
2023-04-15T12:00:54.089Z,11.58
2023-04-15T12:03:43.708Z,12.27
2023-04-15T12:06:19.709Z,11.97
2023-04-15T12:09:21.730Z,12.65
2023-04-15T12:11:50.005Z,12.16
2023-04-15T12:14:25.320Z,12.19
2023-04-15T12:16:58.428Z,12.61
2023-04-15T12:19:28.533Z,12.38
2023-04-15T12:22:06.614Z,11.63
2023-04-15T12:24:34.406Z,12.90
2023-04-15T12:27:14.522Z,12.17
2023-04-15T12:29:43.129Z,12.33
2023-04-15T12:32:10.744Z,12.92
2023-04-15T12:34:41.678Z,12.84
2023-04-15T12:37:10.778Z,13.48
2023-04-15T12:39:39.845Z,12.06
2023-04-15T12:42:07.047Z,11.86
2023-04-15T12:44:33.960Z,13.23
2023-04-15T12:47:00.722Z,13.02
2023-04-15T12:49:27.791Z,13.48
2023-04-15T12:51:56.987Z,13.04
2023-04-15T12:54:23.659Z,13.50
2023-04-15T12:56:51.413Z,13.82
2023-04-15T12:59:18.710Z,13.48
2023-04-15T13:01:46.630Z,13.01
2023-04-15T13:04:13.401Z,13.23
2023-04-15T13:06:39.975Z,13.96
2023-04-15T13:09:06.848Z,12.99
2023-04-15T13:11:34.246Z,14.00
2023-04-15T13:14:02.203Z,13.52
2023-04-15T13:16:28.960Z,13.58
2023-04-15T13:18:55.493Z,14.33
2023-04-15T13:21:22.050Z,14.47
2023-04-15T13:23:50.838Z,14.16
2023-04-15T13:26:18.526Z,13.91
2023-04-15T13:28:45.703Z,13.77
2023-04-15T13:31:12.476Z,14.61
2023-04-15T13:33:38.971Z,13.78
2023-04-15T13:36:05.818Z,14.30
2023-04-15T13:38:32.670Z,15.02
2023-04-15T13:40:59.170Z,15.14
2023-04-15T13:43:26.362Z,14.64
2023-04-15T13:45:52.835Z,15.01
2023-04-15T13:48:19.315Z,14.88
2023-04-15T13:50:45.838Z,14.72
2023-04-15T13:53:12.983Z,14.90
2023-04-15T13:55:41.686Z,15.09
2023-04-15T13:58:08.923Z,15.14
2023-04-15T14:00:35.459Z,15.18
2023-04-15T14:03:01.997Z,14.59
2023-04-15T14:05:28.578Z,15.08
2023-04-15T14:07:55.187Z,15.05
2023-04-15T14:10:21.603Z,15.02
2023-04-15T14:12:47.986Z,14.29
2023-04-15T14:15:14.435Z,14.81
2023-04-15T14:17:42.324Z,15.11
2023-04-15T14:20:09.528Z,15.15
2023-04-15T14:22:36.056Z,15.20
2023-04-15T14:25:02.731Z,15.27
2023-04-15T14:27:29.207Z,15.19
2023-04-15T14:29:55.709Z,15.25
2023-04-15T14:32:22.171Z,15.35
2023-04-15T14:34:48.606Z,15.36
2023-04-15T14:37:15.091Z,15.32
2023-04-15T14:39:41.543Z,15.09
2023-04-15T14:42:07.993Z,15.08
2023-04-15T14:44:34.451Z,15.32
2023-04-15T14:47:00.917Z,15.36
2023-04-15T14:49:27.527Z,15.23
2023-04-15T14:51:53.925Z,15.31
2023-04-15T14:54:21.930Z,15.32
2023-04-15T14:56:48.772Z,15.40
2023-04-15T14:59:15.319Z,15.38
2023-04-15T15:01:41.883Z,15.16
2023-04-15T15:04:10.332Z,15.42
2023-04-15T15:06:36.963Z,15.44
2023-04-15T15:09:03.914Z,15.40
2023-04-15T15:11:30.726Z,15.55
2023-04-15T15:13:58.309Z,15.54
2023-04-15T15:16:25.615Z,15.34
2023-04-15T15:18:52.165Z,15.37
2023-04-15T15:21:18.741Z,15.10
2023-04-15T15:23:45.908Z,14.40
2023-04-15T15:26:12.594Z,13.40
2023-04-15T15:28:39.301Z,13.23
2023-04-15T15:31:05.931Z,13.82
2023-04-15T15:33:32.746Z,13.27
2023-04-15T15:35:59.431Z,12.66
2023-04-15T15:38:26.283Z,13.52
2023-04-15T15:40:52.738Z,13.12
2023-04-15T15:43:19.207Z,13.41
2023-04-15T15:45:45.736Z,12.98
2023-04-15T15:48:12.309Z,13.41
2023-04-15T15:50:38.903Z,13.86
2023-04-15T15:53:05.367Z,13.02
2023-04-15T15:55:31.808Z,13.64
2023-04-15T15:57:58.268Z,13.02
2023-04-15T16:00:24.837Z,13.18
2023-04-15T16:03:06.953Z,13.18
2023-04-15T16:05:35.146Z,13.54
2023-04-15T16:08:01.847Z,13.82
2023-04-15T16:10:28.866Z,13.76
2023-04-15T16:12:55.700Z,13.91
2023-04-15T16:15:23.363Z,13.89
2023-04-15T16:17:49.894Z,13.88
2023-04-15T16:20:16.657Z,13.81
2023-04-15T16:22:43.217Z,13.44
2023-04-15T16:25:09.791Z,13.29
2023-04-15T16:27:50.328Z,13.22
2023-04-15T16:30:23.089Z,13.43
2023-04-15T16:32:49.552Z,14.32
2023-04-15T16:35:16.764Z,14.56
2023-04-15T16:37:43.246Z,13.32
2023-04-15T16:40:10.155Z,13.58
2023-04-15T16:42:36.947Z,13.20
2023-04-15T16:45:03.576Z,14.02
2023-04-15T16:47:30.047Z,14.46
2023-04-15T16:49:56.411Z,13.41
2023-04-15T16:52:22.811Z,13.91
2023-04-15T16:54:49.188Z,13.85
2023-04-15T16:57:15.808Z,13.68
2023-04-15T16:59:42.245Z,13.90
2023-04-15T17:02:12.311Z,13.53
2023-04-15T17:04:39.716Z,14.03
2023-04-15T17:07:06.705Z,14.37
2023-04-15T17:09:33.116Z,14.44
2023-04-15T17:11:59.647Z,13.93
2023-04-15T17:14:28.600Z,13.66
2023-04-15T17:16:55.648Z,14.03
2023-04-15T17:19:22.160Z,14.26
2023-04-15T17:21:48.635Z,13.87
2023-04-15T17:24:15.049Z,14.15
2023-04-15T17:26:41.477Z,14.32
2023-04-15T17:29:07.937Z,14.22
2023-04-15T17:31:34.480Z,14.77
2023-04-15T17:34:08.708Z,14.88
2023-04-15T17:36:37.423Z,15.05
2023-04-15T17:39:04.565Z,14.31
2023-04-15T17:41:31.222Z,14.31
2023-04-15T17:43:57.629Z,13.88
2023-04-15T17:46:24.102Z,14.41
2023-04-15T17:48:50.559Z,14.47
2023-04-15T17:51:17.132Z,14.31
2023-04-15T17:53:43.539Z,14.72
2023-04-15T17:56:09.969Z,14.65
2023-04-15T17:58:36.413Z,15.10
2023-04-15T18:01:02.872Z,14.88
2023-04-15T18:03:29.515Z,15.03
2023-04-15T18:05:56.456Z,15.50
2023-04-15T18:08:23.055Z,14.97
2023-04-15T18:10:49.567Z,14.49
2023-04-15T18:13:16.202Z,14.13
2023-04-15T18:15:44.602Z,14.48
2023-04-15T18:18:12.713Z,13.75
2023-04-15T18:20:39.126Z,14.70
2023-04-15T18:23:05.630Z,15.16
2023-04-15T18:25:33.851Z,15.40
2023-04-15T18:28:00.448Z,14.98
2023-04-15T18:30:26.881Z,13.28
2023-04-15T18:32:53.357Z,13.70
2023-04-15T18:35:20.691Z,14.56
2023-04-15T18:37:47.187Z,14.18
2023-04-15T18:40:15.778Z,13.67
2023-04-15T18:42:42.168Z,14.02
2023-04-15T18:45:08.906Z,13.98
2023-04-15T18:47:35.379Z,14.41
2023-04-15T18:50:01.914Z,13.68
2023-04-15T18:52:29.374Z,13.69
2023-04-15T18:54:55.809Z,14.28
2023-04-15T18:57:23.683Z,12.98
2023-04-15T18:59:55.125Z,13.62
2023-04-15T19:02:21.635Z,13.55
2023-04-15T19:04:48.134Z,13.60
2023-04-15T19:07:14.794Z,13.81
2023-04-15T19:09:41.843Z,13.47
2023-04-15T19:12:08.488Z,14.16
2023-04-15T19:14:35.005Z,14.84
2023-04-15T19:17:01.523Z,13.78
2023-04-15T19:19:29.313Z,14.32
2023-04-15T19:21:55.922Z,14.58
2023-04-15T19:24:22.417Z,14.00
2023-04-15T19:26:52.693Z,14.73
2023-04-15T19:29:19.170Z,14.41
2023-04-15T19:31:45.637Z,14.86
2023-04-15T19:34:12.063Z,14.74
2023-04-15T19:36:38.694Z,14.95
2023-04-15T19:39:06.329Z,14.60
2023-04-15T19:41:32.989Z,14.29
2023-04-15T19:44:00.119Z,14.73
2023-04-15T19:46:27.023Z,14.46
2023-04-15T19:48:54.848Z,14.29
2023-04-15T19:51:21.259Z,14.32
2023-04-15T19:53:49.533Z,13.76
2023-04-15T19:56:16.408Z,14.75
2023-04-15T19:58:46.412Z,14.41
2023-04-15T20:01:13.040Z,14.47
2023-04-15T20:03:39.677Z,14.82
2023-04-15T20:06:06.161Z,14.32
2023-04-15T20:08:32.566Z,14.66
2023-04-15T20:10:58.986Z,14.87
2023-04-15T20:13:25.417Z,14.76
2023-04-15T20:15:51.879Z,14.37
2023-04-15T20:18:18.369Z,14.16
2023-04-15T20:20:44.848Z,13.46
2023-04-15T20:23:11.257Z,14.74
2023-04-15T20:25:37.694Z,14.65
2023-04-15T20:28:04.145Z,13.42
2023-04-15T20:30:30.728Z,13.75
2023-04-15T20:32:57.356Z,13.88
2023-04-15T20:35:25.032Z,14.31
2023-04-15T20:37:51.434Z,14.18
2023-04-15T20:40:17.896Z,13.94
2023-04-15T20:42:44.382Z,13.94
2023-04-15T20:45:11.313Z,14.57
2023-04-15T20:47:37.836Z,14.56
2023-04-15T20:50:04.706Z,13.63
2023-04-15T20:52:31.314Z,13.73
2023-04-15T20:54:57.741Z,13.68
2023-04-15T20:57:24.663Z,13.93
2023-04-15T20:59:51.289Z,14.16
2023-04-15T21:02:18.068Z,13.08
2023-04-15T21:04:47.000Z,13.68
2023-04-15T21:07:13.392Z,13.24
2023-04-15T21:09:41.422Z,13.42
2023-04-15T21:12:08.011Z,14.26
2023-04-15T21:14:35.836Z,13.63
2023-04-15T21:17:09.237Z,13.25
2023-04-15T21:19:37.441Z,13.94
2023-04-15T21:22:03.913Z,13.28
2023-04-15T21:24:30.622Z,13.71
2023-04-15T21:26:57.223Z,14.03
2023-04-15T21:29:24.220Z,14.53
2023-04-15T21:31:50.784Z,14.47
2023-04-15T21:34:17.522Z,13.92
2023-04-15T21:36:43.949Z,14.14
2023-04-15T21:39:10.414Z,14.28
2023-04-15T21:41:37.068Z,14.20
2023-04-15T21:44:04.084Z,13.42
2023-04-15T21:46:33.333Z,14.32
2023-04-15T21:49:02.219Z,13.53
2023-04-15T21:51:28.705Z,13.91
2023-04-15T21:53:55.909Z,13.02
2023-04-15T21:56:24.139Z,13.46
2023-04-15T21:58:51.284Z,12.95
2023-04-15T22:01:17.779Z,12.45
2023-04-15T22:03:44.465Z,13.57
2023-04-15T22:06:13.520Z,12.90
2023-04-15T22:08:55.214Z,13.37
2023-04-15T22:11:27.259Z,14.08
2023-04-15T22:13:54.347Z,13.27
2023-04-15T22:16:21.128Z,14.49
2023-04-15T22:18:47.636Z,13.77
2023-04-15T22:21:14.278Z,13.11
2023-04-15T22:23:40.822Z,14.16
2023-04-15T22:26:07.386Z,14.37
2023-04-15T22:28:34.013Z,13.91
2023-04-15T22:31:00.584Z,14.48
2023-04-15T22:33:27.078Z,13.73
2023-04-15T22:35:53.479Z,14.61
2023-04-15T22:38:19.910Z,13.83
2023-04-15T22:40:46.830Z,13.91
2023-04-15T22:43:13.296Z,13.50
2023-04-15T22:45:39.712Z,12.84
2023-04-15T22:48:06.308Z,13.66
2023-04-15T22:50:32.786Z,13.35
2023-04-15T22:52:59.217Z,13.78
2023-04-15T22:55:25.615Z,13.07
2023-04-15T22:57:52.696Z,14.16
2023-04-15T23:00:19.187Z,12.98
2023-04-15T23:02:45.749Z,12.84
2023-04-15T23:05:12.640Z,13.58
2023-04-15T23:07:39.979Z,13.83
2023-04-15T23:10:07.960Z,13.85
2023-04-15T23:12:34.814Z,13.06
2023-04-15T23:15:01.420Z,13.19
2023-04-15T23:17:27.932Z,13.40
2023-04-15T23:19:54.352Z,13.60
2023-04-15T23:22:20.840Z,13.15
2023-04-15T23:24:47.328Z,13.95
2023-04-15T23:27:13.770Z,13.71
2023-04-15T23:29:40.445Z,13.88
2023-04-15T23:32:06.983Z,12.46
2023-04-15T23:34:33.477Z,12.50
2023-04-15T23:36:59.967Z,12.81
2023-04-15T23:39:26.486Z,13.22
2023-04-15T23:41:53.384Z,12.05
2023-04-15T23:44:19.976Z,13.00
2023-04-15T23:46:46.504Z,13.23
2023-04-15T23:49:13.080Z,12.65
2023-04-15T23:51:39.509Z,13.88
2023-04-15T23:54:05.937Z,13.24
2023-04-15T23:56:35.208Z,13.14
2023-04-15T23:59:01.617Z,12.78
